logo
Rechercher aéroport 
image banner adimage banner adimage banner ad
image banner ad

FAKF - Kersefontein

Situé à Koffee Bay, South Africa

ICAO - FAKF, IATA -

Données fournies par Airmate  

Information générale

Coordonnées: S32°53'54" E18°19'30"
Élévation : 9 feet MSL.
Variation magnétique : -25° East
Voir autres Aéroports à Western Cape

Données opérationnelles

Special qualification required
Heure actuelle UTC:
Heure actuelle locale:
METAR: FALW 191200Z AUTO 20004KT //// // ////// 19/10 Q1021
Voir NOTAMs / SUP AIP / TFR affectant cet aéroport [VIEW]
Fréquences de communication: [VIEW]

Pistes:

Identifiant RWYQFULongueur (ft)Largeur (ft)SurfaceLDA (ft)
0414°278966ASPH
22194°278966ASPH

Coordonnées de l'aéroport

Adresse: Koffee Bay South Africa

Vue satellite de FAKF